Time;durP1;ratioP1;P1;durP2;ratioP2;P2;SDS_P1;SDS_P2;PMS_P1;PMS_P2;Temp;Humidity;BMP_temperature;BMP_pressure;BME280_temperature;BME280_humidity;BME280_pressure;Samples;Min_cycle;Max_cycle;Signal;HPM_P1;HPM_P2
2021/03/23 00:01:57;;;;;;;14.97;8.80;;;5.20;99.90;;;;;;4931268;29;20227;-79
2021/03/23 00:04:42;;;;;;;12.83;8.40;;;5.20;99.90;;;;;;4920920;29;20218;-80
2021/03/23 00:07:27;;;;;;;13.73;8.77;;;5.20;99.90;;;;;;4922018;29;20207;-79
2021/03/23 00:10:13;;;;;;;15.73;9.20;;;5.30;99.90;;;;;;4928230;29;20322;-79
2021/03/23 00:12:58;;;;;;;14.07;8.80;;;5.40;99.90;;;;;;4933552;29;20272;-80
2021/03/23 00:15:47;;;;;;;15.03;8.97;;;5.40;99.90;;;;;;4938274;29;20263;-80
2021/03/23 00:18:32;;;;;;;14.73;8.80;;;5.50;99.90;;;;;;4937035;29;20242;-81
2021/03/23 00:21:18;;;;;;;15.37;8.73;;;5.50;99.90;;;;;;4939374;29;20608;-81
2021/03/23 00:24:04;;;;;;;12.63;8.30;;;5.50;99.90;;;;;;4938037;29;20230;-81
2021/03/23 00:26:49;;;;;;;11.93;7.43;;;5.60;99.90;;;;;;4938982;29;20703;-80
2021/03/23 00:29:34;;;;;;;14.37;7.77;;;5.60;99.90;;;;;;4931417;29;20222;-81
2021/03/23 00:32:20;;;;;;;14.50;8.70;;;5.70;99.90;;;;;;4927934;29;20330;-81
2021/03/23 00:35:07;;;;;;;14.77;8.30;;;5.70;99.90;;;;;;4940425;29;20234;-81
2021/03/23 00:37:55;;;;;;;14.60;8.47;;;5.70;99.90;;;;;;4938980;29;20243;-81
2021/03/23 00:40:41;;;;;;;12.20;7.60;;;5.80;99.90;;;;;;4939504;29;20243;-82
2021/03/23 00:43:26;;;;;;;13.50;7.87;;;5.80;99.90;;;;;;4931138;29;20225;-80
2021/03/23 00:46:11;;;;;;;12.70;7.63;;;5.80;99.90;;;;;;4937988;29;20258;-81
2021/03/23 00:48:57;;;;;;;12.63;7.37;;;5.90;99.90;;;;;;4936779;29;20239;-80
2021/03/23 00:51:42;;;;;;;10.47;7.07;;;5.90;99.90;;;;;;4938239;29;20222;-81
2021/03/23 00:54:26;;;;;;;16.07;7.70;;;5.90;99.90;;;;;;4939974;29;20218;-80
2021/03/23 00:57:11;;;;;;;13.47;6.57;;;6.00;99.90;;;;;;4921856;29;20235;-81
2021/03/23 00:59:56;;;;;;;11.37;6.33;;;6.00;99.90;;;;;;4935373;29;20235;-80
2021/03/23 01:02:43;;;;;;;14.27;7.30;;;6.00;99.90;;;;;;4936432;29;20282;-81
2021/03/23 01:05:30;;;;;;;14.77;6.40;;;6.10;99.90;;;;;;4939381;29;20211;-82
2021/03/23 01:08:15;;;;;;;12.63;7.23;;;6.10;99.90;;;;;;4935761;29;20284;-81
2021/03/23 01:11:00;;;;;;;11.47;7.00;;;6.20;99.90;;;;;;4928253;29;20239;-81
2021/03/23 01:13:45;;;;;;;11.50;6.80;;;6.20;99.90;;;;;;4925887;29;20206;-81
2021/03/23 01:16:30;;;;;;;11.90;7.33;;;6.20;99.90;;;;;;4937904;29;20210;-81
2021/03/23 01:19:15;;;;;;;10.20;6.30;;;6.20;99.90;;;;;;4927659;29;20354;-81
2021/03/23 01:22:01;;;;;;;12.43;7.50;;;6.30;99.90;;;;;;4926540;29;20227;-81
2021/03/23 01:24:46;;;;;;;11.13;7.37;;;6.30;99.90;;;;;;4939113;29;20226;-81
2021/03/23 01:27:31;;;;;;;13.90;8.17;;;6.30;99.90;;;;;;4936820;29;20215;-80
2021/03/23 01:30:17;;;;;;;12.70;7.27;;;6.30;99.90;;;;;;4939323;29;20241;-81
2021/03/23 01:33:02;;;;;;;13.83;7.57;;;6.40;99.90;;;;;;4939450;29;20208;-81
2021/03/23 01:35:50;;;;;;;13.73;7.47;;;6.40;99.90;;;;;;4929026;29;20219;-81
2021/03/23 01:38:36;;;;;;;13.67;8.23;;;6.40;99.90;;;;;;4939592;29;20202;-81
2021/03/23 01:41:21;;;;;;;12.67;8.30;;;6.40;99.90;;;;;;4919890;29;20235;-81
2021/03/23 01:44:06;;;;;;;14.23;9.17;;;6.50;99.90;;;;;;4933645;29;20699;-81
2021/03/23 01:46:51;;;;;;;17.33;9.60;;;6.50;99.90;;;;;;4929296;29;20234;-81
2021/03/23 01:49:39;;;;;;;15.83;10.30;;;6.50;99.90;;;;;;4933767;29;20235;-81
2021/03/23 01:52:28;;;;;;;18.90;13.27;;;6.60;99.90;;;;;;4939301;29;20264;-81
2021/03/23 01:55:14;;;;;;;19.00;13.33;;;6.60;99.90;;;;;;4937450;29;20206;-81
2021/03/23 01:58:00;;;;;;;20.87;13.20;;;6.70;99.90;;;;;;4937272;29;20227;-81
2021/03/23 02:00:47;;;;;;;25.07;14.70;;;6.70;99.90;;;;;;4930632;29;20229;-81
2021/03/23 02:03:32;;;;;;;23.00;14.13;;;6.70;99.90;;;;;;4935760;29;20591;-81
2021/03/23 02:06:31;;;;;;;22.07;13.47;;;6.70;99.90;;;;;;4935967;29;20222;-81
2021/03/23 02:09:19;;;;;;;19.97;12.77;;;6.70;99.90;;;;;;4932645;29;20263;-80
2021/03/23 02:12:08;;;;;;;23.40;13.73;;;6.70;99.90;;;;;;4925820;29;20228;-80
2021/03/23 02:14:52;;;;;;;20.07;13.53;;;6.70;99.90;;;;;;4935354;29;20277;-80
2021/03/23 02:17:39;;;;;;;19.47;12.87;;;6.70;99.90;;;;;;4936068;29;20210;-80
2021/03/23 02:20:25;;;;;;;19.40;14.37;;;6.70;99.90;;;;;;4923709;29;20610;-80
2021/03/23 02:23:23;;;;;;;21.40;13.37;;;6.70;99.90;;;;;;4938604;29;20251;-81
2021/03/23 02:26:11;;;;;;;21.30;13.50;;;6.70;99.90;;;;;;4927100;29;20703;-80
2021/03/23 02:28:58;;;;;;;21.40;14.03;;;6.80;99.90;;;;;;4935329;29;20223;-81
2021/03/23 02:31:46;;;;;;;22.90;14.47;;;6.70;99.90;;;;;;4933518;29;20227;-81
2021/03/23 02:34:30;;;;;;;22.53;13.93;;;6.70;99.90;;;;;;4925242;29;20215;-80
2021/03/23 02:37:16;;;;;;;22.67;15.17;;;6.70;99.90;;;;;;4925115;29;20206;-80
2021/03/23 02:40:03;;;;;;;23.87;16.70;;;6.80;99.90;;;;;;4936928;29;20762;-81
2021/03/23 02:42:48;;;;;;;25.53;14.67;;;6.70;99.90;;;;;;4937664;29;20340;-81
2021/03/23 02:45:34;;;;;;;23.00;16.00;;;6.70;99.90;;;;;;4937361;29;20222;-80
2021/03/23 02:48:19;;;;;;;25.63;17.27;;;6.80;99.90;;;;;;4934916;29;20222;-81
2021/03/23 02:51:04;;;;;;;25.90;16.50;;;6.70;99.90;;;;;;4935721;29;20255;-81
2021/03/23 02:53:49;;;;;;;26.17;17.90;;;6.80;99.90;;;;;;4929930;29;20217;-80
2021/03/23 02:56:35;;;;;;;29.73;19.97;;;6.80;99.90;;;;;;4933564;29;20704;-80
2021/03/23 02:59:20;;;;;;;28.77;20.43;;;6.80;99.90;;;;;;4937721;29;20686;-81
2021/03/23 03:02:06;;;;;;;28.97;18.30;;;6.80;99.90;;;;;;4938026;29;20750;-81
2021/03/23 03:04:50;;;;;;;27.10;18.43;;;6.80;99.90;;;;;;4923733;29;20231;-81
2021/03/23 03:07:35;;;;;;;25.30;17.13;;;6.80;99.90;;;;;;4924012;29;20610;-81
2021/03/23 03:10:20;;;;;;;29.87;19.50;;;6.80;99.90;;;;;;4920786;29;20237;-81
2021/03/23 03:13:06;;;;;;;30.50;20.23;;;6.80;99.90;;;;;;4931186;29;20238;-80
2021/03/23 03:15:53;;;;;;;31.00;19.53;;;6.80;99.90;;;;;;4933503;29;20217;-81
2021/03/23 03:18:38;;;;;;;31.47;20.73;;;6.80;99.90;;;;;;4930131;29;20298;-80
2021/03/23 03:21:23;;;;;;;31.03;20.77;;;6.80;99.90;;;;;;4942257;29;20262;-81
2021/03/23 03:24:08;;;;;;;26.43;17.17;;;6.80;99.90;;;;;;4944858;29;20262;-80
2021/03/23 03:26:53;;;;;;;27.47;18.93;;;6.80;99.90;;;;;;4944941;29;20232;-81
2021/03/23 03:29:39;;;;;;;30.77;18.80;;;6.80;99.90;;;;;;4945347;29;20279;-79
2021/03/23 03:32:23;;;;;;;28.73;19.40;;;6.80;99.90;;;;;;4940671;29;20211;-81
2021/03/23 03:35:10;;;;;;;29.70;20.50;;;6.80;99.90;;;;;;4937968;29;20254;-81
2021/03/23 03:37:55;;;;;;;30.33;19.63;;;6.80;99.90;;;;;;4940753;29;20210;-81
2021/03/23 03:40:42;;;;;;;26.20;18.90;;;6.90;99.90;;;;;;4925381;29;21862;-81
2021/03/23 03:43:31;;;;;;;26.80;17.93;;;6.90;99.90;;;;;;4933636;29;20227;-81
2021/03/23 03:46:17;;;;;;;28.10;18.73;;;6.90;99.90;;;;;;4942068;29;20211;-79
2021/03/23 03:49:02;;;;;;;29.70;18.83;;;6.90;99.90;;;;;;4940044;29;20293;-81
2021/03/23 03:51:46;;;;;;;25.07;17.87;;;6.90;99.90;;;;;;4936632;29;20271;-80
2021/03/23 03:54:32;;;;;;;26.83;17.73;;;6.90;99.90;;;;;;4938730;29;20691;-81
2021/03/23 03:57:16;;;;;;;30.47;18.03;;;6.90;99.90;;;;;;4937803;29;20256;-81
2021/03/23 04:00:01;;;;;;;30.37;18.63;;;6.90;99.90;;;;;;4930545;29;20238;-81
2021/03/23 04:02:47;;;;;;;27.53;18.57;;;6.90;99.90;;;;;;4938920;29;20234;-81
2021/03/23 04:05:34;;;;;;;33.40;18.27;;;6.90;99.90;;;;;;4940083;29;20726;-81
2021/03/23 04:08:22;;;;;;;33.17;20.53;;;6.90;99.90;;;;;;4936841;29;20211;-80
2021/03/23 04:11:11;;;;;;;28.20;17.67;;;6.90;99.90;;;;;;4938655;29;20283;-81
2021/03/23 04:13:56;;;;;;;27.00;17.00;;;6.90;99.90;;;;;;4937919;29;20231;-81
2021/03/23 04:16:41;;;;;;;26.83;18.87;;;6.90;99.90;;;;;;4934548;29;20236;-80
2021/03/23 04:19:27;;;;;;;29.23;20.17;;;6.90;99.90;;;;;;4934429;29;20263;-80
2021/03/23 04:22:12;;;;;;;27.37;18.43;;;6.80;99.90;;;;;;4935115;29;20654;-81
2021/03/23 04:24:57;;;;;;;36.00;20.50;;;6.80;99.90;;;;;;4941165;29;20229;-80
2021/03/23 04:27:41;;;;;;;28.67;18.37;;;6.80;99.90;;;;;;4938936;29;20243;-81
2021/03/23 04:30:27;;;;;;;31.53;19.80;;;6.80;99.90;;;;;;4933928;29;20235;-81
2021/03/23 04:33:13;;;;;;;30.10;20.07;;;6.80;99.90;;;;;;4935621;29;20234;-81
2021/03/23 04:36:00;;;;;;;31.10;20.03;;;6.80;99.90;;;;;;4938876;29;20243;-80
2021/03/23 04:38:45;;;;;;;28.17;18.97;;;6.80;99.90;;;;;;4923178;29;20261;-80
2021/03/23 04:41:30;;;;;;;31.23;19.63;;;6.80;99.90;;;;;;4937064;29;20250;-80
2021/03/23 04:44:15;;;;;;;30.27;18.87;;;6.80;99.90;;;;;;4929947;29;20617;-80
2021/03/23 04:46:59;;;;;;;34.10;21.77;;;6.80;99.90;;;;;;4918768;29;20272;-81
2021/03/23 04:49:44;;;;;;;32.57;20.57;;;6.80;99.90;;;;;;4927620;29;20333;-81
2021/03/23 04:52:30;;;;;;;29.50;18.27;;;6.80;99.90;;;;;;4940806;29;20216;-81
2021/03/23 04:55:16;;;;;;;30.30;20.10;;;6.80;99.90;;;;;;4937455;29;20215;-80
2021/03/23 04:58:01;;;;;;;31.07;20.53;;;6.80;99.90;;;;;;4935253;29;20344;-81
2021/03/23 05:00:46;;;;;;;29.53;18.93;;;6.80;99.90;;;;;;4935499;29;20274;-81
2021/03/23 05:03:33;;;;;;;32.77;20.90;;;6.80;99.90;;;;;;4939656;29;20230;-80
2021/03/23 05:06:18;;;;;;;32.80;20.07;;;6.70;99.90;;;;;;4939389;29;20222;-80
2021/03/23 05:09:04;;;;;;;31.77;19.83;;;6.70;99.90;;;;;;4933647;29;20574;-80
2021/03/23 05:11:49;;;;;;;27.60;18.47;;;6.70;99.90;;;;;;4940240;29;20238;-80
2021/03/23 05:14:34;;;;;;;29.57;19.37;;;6.70;99.90;;;;;;4938440;29;20271;-79
2021/03/23 05:17:19;;;;;;;33.43;21.53;;;6.70;99.90;;;;;;4930819;29;20747;-80
2021/03/23 05:20:07;;;;;;;31.67;20.73;;;6.70;99.90;;;;;;4926306;29;20276;-80
2021/03/23 05:22:52;;;;;;;32.50;20.30;;;6.70;99.90;;;;;;4940326;29;20305;-80
2021/03/23 05:25:38;;;;;;;32.60;19.87;;;6.60;99.90;;;;;;4932975;29;20267;-80
2021/03/23 05:28:23;;;;;;;30.00;18.97;;;6.60;99.90;;;;;;4938273;29;20298;-80
2021/03/23 05:31:08;;;;;;;30.73;18.67;;;6.60;99.90;;;;;;4928455;29;20280;-80
2021/03/23 05:33:54;;;;;;;34.20;21.10;;;6.60;99.90;;;;;;4936210;29;20746;-80
2021/03/23 05:36:41;;;;;;;30.90;19.17;;;6.50;99.90;;;;;;4937244;29;20239;-80
2021/03/23 05:39:26;;;;;;;29.50;17.47;;;6.50;99.90;;;;;;4926861;29;20215;-80
2021/03/23 05:42:18;;;;;;;36.50;21.07;;;6.50;99.90;;;;;;4931462;29;20773;-80
2021/03/23 05:45:14;;;;;;;32.60;18.80;;;6.50;99.90;;;;;;4938588;29;20243;-79
2021/03/23 05:48:20;;;;;;;33.87;20.97;;;6.40;99.90;;;;;;4948131;29;20657;-78
2021/03/23 05:51:14;;;;;;;36.43;21.83;;;6.40;99.90;;;;;;4958058;29;20232;-77
2021/03/23 05:54:05;;;;;;;31.57;19.87;;;6.40;99.90;;;;;;4954615;29;20231;-77
2021/03/23 05:56:54;;;;;;;34.47;20.30;;;6.30;99.90;;;;;;4954533;29;20210;-78
2021/03/23 05:59:45;;;;;;;36.17;19.20;;;6.30;99.90;;;;;;4935601;29;20284;-78
2021/03/23 06:02:42;;;;;;;38.67;20.30;;;6.30;99.90;;;;;;4932176;29;20288;-78
2021/03/23 06:05:37;;;;;;;31.70;19.87;;;6.20;99.90;;;;;;4949570;29;20215;-78
2021/03/23 06:08:27;;;;;;;32.63;19.40;;;6.20;99.90;;;;;;4942749;29;20207;-80
2021/03/23 06:11:48;;;;;;;31.87;19.10;;;6.20;99.90;;;;;;4934570;29;20730;-80
2021/03/23 06:14:55;;;;;;;35.33;19.53;;;6.20;99.90;;;;;;4935479;29;20202;-81
2021/03/23 06:17:48;;;;;;;34.20;20.60;;;6.10;99.90;;;;;;4932587;29;20206;-81
2021/03/23 06:21:03;;;;;;;40.60;20.27;;;6.10;99.90;;;;;;4932098;29;20247;-80
2021/03/23 06:24:14;;;;;;;34.93;20.27;;;6.10;99.90;;;;;;4908342;29;20238;-81
2021/03/23 06:27:08;;;;;;;31.57;19.37;;;6.00;99.90;;;;;;4933006;29;20214;-81
2021/03/23 06:30:17;;;;;;;38.00;20.10;;;6.10;99.90;;;;;;4931441;29;20271;-81
2021/03/23 06:33:03;;;;;;;36.70;20.87;;;6.00;99.90;;;;;;4930530;29;20223;-80
2021/03/23 06:35:53;;;;;;;31.63;18.47;;;6.00;99.90;;;;;;4936627;29;20210;-82
2021/03/23 06:38:40;;;;;;;36.67;20.37;;;5.90;99.90;;;;;;4937710;29;20198;-80
2021/03/23 06:41:28;;;;;;;38.87;22.20;;;5.90;99.90;;;;;;4944212;29;20308;-81
2021/03/23 06:44:30;;;;;;;34.70;19.90;;;6.00;99.90;;;;;;4942350;29;20211;-80
2021/03/23 06:47:38;;;;;;;32.50;18.43;;;6.00;99.90;;;;;;4940723;29;20340;-81
2021/03/23 06:50:29;;;;;;;25.63;13.73;;;6.00;99.90;;;;;;4947113;29;20245;-80
2021/03/23 06:53:16;;;;;;;33.07;19.27;;;6.10;99.90;;;;;;4946226;29;20209;-80
2021/03/23 06:56:19;;;;;;;34.33;19.13;;;6.10;99.90;;;;;;4944659;29;20255;-79
2021/03/23 06:59:11;;;;;;;35.27;20.90;;;6.20;99.90;;;;;;4943164;29;20274;-81
2021/03/23 07:02:01;;;;;;;37.00;19.17;;;6.30;99.90;;;;;;4940172;29;20206;-81
2021/03/23 07:04:46;;;;;;;33.67;18.60;;;6.40;99.90;;;;;;4934894;29;20278;-79
2021/03/23 07:07:31;;;;;;;28.63;16.13;;;6.50;99.90;;;;;;4932937;29;20687;-80
2021/03/23 07:10:22;;;;;;;33.37;18.50;;;6.60;99.90;;;;;;4935930;29;20370;-81
2021/03/23 07:13:09;;;;;;;30.00;16.73;;;6.60;99.90;;;;;;4949962;28;20206;-81
2021/03/23 07:15:57;;;;;;;33.03;20.50;;;6.70;99.90;;;;;;4940776;29;20773;-81
2021/03/23 07:18:44;;;;;;;36.43;20.17;;;6.80;99.90;;;;;;4943937;29;20263;-79
2021/03/23 07:21:49;;;;;;;37.80;20.50;;;6.90;99.90;;;;;;4950827;29;20307;-80
2021/03/23 07:24:50;;;;;;;37.03;19.77;;;7.00;99.90;;;;;;4948852;29;20226;-80
2021/03/23 07:27:34;;;;;;;33.87;19.37;;;7.00;99.90;;;;;;4940794;29;20259;-80
2021/03/23 07:30:29;;;;;;;31.43;16.60;;;7.00;99.90;;;;;;4941031;29;20246;-80
2021/03/23 07:33:20;;;;;;;36.93;22.03;;;7.10;99.90;;;;;;4926674;29;20210;-78
2021/03/23 07:36:07;;;;;;;36.03;22.00;;;7.20;99.90;;;;;;4933398;29;20218;-79
2021/03/23 07:38:58;;;;;;;49.27;22.87;;;7.30;99.90;;;;;;4925200;29;20246;-80
2021/03/23 07:41:49;;;;;;;38.13;21.53;;;7.30;99.90;;;;;;4949182;29;20230;-80
2021/03/23 07:44:38;;;;;;;41.70;21.70;;;7.40;99.90;;;;;;4942215;29;20223;-79
2021/03/23 07:47:34;;;;;;;41.37;22.63;;;7.40;99.90;;;;;;4940637;29;20239;-80
2021/03/23 07:50:24;;;;;;;36.93;21.33;;;7.50;99.90;;;;;;4946023;29;20251;-79
2021/03/23 07:53:18;;;;;;;38.53;23.10;;;7.50;99.90;;;;;;4935346;29;20215;-80
2021/03/23 07:56:19;;;;;;;38.13;20.20;;;7.60;99.90;;;;;;4932846;29;20211;-80
2021/03/23 07:59:14;;;;;;;43.50;24.93;;;7.60;99.90;;;;;;4931070;29;20699;-80
2021/03/23 08:02:14;;;;;;;45.30;25.23;;;7.70;99.90;;;;;;4930414;29;20303;-80
2021/03/23 08:05:09;;;;;;;48.77;27.33;;;7.80;99.90;;;;;;4936375;29;20235;-81
2021/03/23 08:08:07;;;;;;;38.50;22.10;;;7.80;99.90;;;;;;4933735;29;20231;-80
2021/03/23 08:11:06;;;;;;;57.70;32.07;;;7.90;99.90;;;;;;4934877;29;20230;-81
2021/03/23 08:14:06;;;;;;;59.70;32.23;;;8.00;99.90;;;;;;4936301;29;20212;-81
2021/03/23 08:17:06;;;;;;;71.80;35.80;;;8.00;99.90;;;;;;4929110;29;20225;-81
2021/03/23 08:20:06;;;;;;;72.53;36.13;;;8.20;99.90;;;;;;4932456;29;20255;-81
2021/03/23 08:23:07;;;;;;;72.40;39.53;;;8.20;99.90;;;;;;4926462;29;20243;-80
2021/03/23 08:26:01;;;;;;;74.93;40.73;;;8.40;99.90;;;;;;4927997;29;20218;-81
2021/03/23 08:28:51;;;;;;;74.93;41.13;;;8.50;99.90;;;;;;4944398;29;20230;-81
2021/03/23 08:31:52;;;;;;;67.70;37.23;;;8.70;99.90;;;;;;4936588;29;20334;-80
2021/03/23 08:34:52;;;;;;;68.93;39.47;;;8.80;99.90;;;;;;4929446;29;20210;-80
2021/03/23 08:37:53;;;;;;;71.87;40.43;;;9.10;99.90;;;;;;4932287;29;20247;-80
2021/03/23 08:40:46;;;;;;;77.50;38.10;;;9.30;99.90;;;;;;4941136;29;20282;-81
2021/03/23 08:43:36;;;;;;;62.77;35.83;;;9.40;99.90;;;;;;4934840;29;20274;-80
2021/03/23 08:46:27;;;;;;;63.70;39.60;;;9.60;99.90;;;;;;4929671;29;20226;-81
2021/03/23 08:49:19;;;;;;;68.33;35.87;;;9.70;99.90;;;;;;4932746;29;20207;-81
2021/03/23 08:52:18;;;;;;;64.83;37.27;;;9.80;99.90;;;;;;4933757;29;20566;-80
2021/03/23 08:55:05;;;;;;;50.50;30.73;;;9.90;99.90;;;;;;4934993;29;20246;-80
2021/03/23 08:57:55;;;;;;;58.33;34.77;;;10.10;99.90;;;;;;4930263;29;20243;-80
2021/03/23 09:00:53;;;;;;;64.50;36.43;;;10.30;99.90;;;;;;4949963;29;20313;-80
2021/03/23 09:03:45;;;;;;;61.27;34.37;;;10.40;99.90;;;;;;4945010;29;20222;-79
2021/03/23 09:06:48;;;;;;;66.40;36.97;;;10.50;99.90;;;;;;4948303;29;20234;-79
2021/03/23 09:09:37;;;;;;;58.17;32.77;;;10.70;99.90;;;;;;4930253;29;20218;-79
2021/03/23 09:12:37;;;;;;;50.67;30.33;;;10.80;99.90;;;;;;4942925;29;20735;-78
2021/03/23 09:15:24;;;;;;;53.23;31.47;;;10.90;99.90;;;;;;4944333;29;20214;-79
2021/03/23 09:18:27;;;;;;;50.00;30.53;;;10.90;99.90;;;;;;4939692;29;20266;-79
2021/03/23 09:21:12;;;;;;;48.33;29.43;;;11.00;99.90;;;;;;4943631;29;20245;-79
2021/03/23 09:23:58;;;;;;;49.03;30.63;;;11.20;99.90;;;;;;4934540;29;20235;-79
2021/03/23 09:26:47;;;;;;;49.53;30.33;;;11.20;99.90;;;;;;4941932;29;20221;-79
2021/03/23 09:29:44;;;;;;;48.40;30.70;;;11.30;99.90;;;;;;4936306;29;20210;-79
2021/03/23 09:32:30;;;;;;;49.50;29.80;;;11.40;99.90;;;;;;4933404;29;20232;-79
2021/03/23 09:35:20;;;;;;;49.00;29.03;;;11.50;99.90;;;;;;4942024;29;20268;-79
2021/03/23 09:38:30;;;;;;;45.23;27.53;;;11.50;99.90;;;;;;4941973;29;20625;-80
2021/03/23 09:41:36;;;;;;;47.23;28.93;;;11.50;99.90;;;;;;4932728;29;20251;-80
2021/03/23 09:44:40;;;;;;;44.53;25.93;;;11.50;99.90;;;;;;4932044;29;20218;-81
2021/03/23 09:47:40;;;;;;;44.60;29.13;;;11.50;99.90;;;;;;4934123;29;20278;-80
2021/03/23 09:50:37;;;;;;;35.97;21.23;;;11.50;99.90;;;;;;4933910;29;20779;-81
2021/03/23 09:53:29;;;;;;;46.83;27.23;;;11.40;99.90;;;;;;4937716;29;20267;-80
2021/03/23 09:56:18;;;;;;;38.93;24.43;;;11.40;99.90;;;;;;4933954;29;20215;-79
2021/03/23 09:59:11;;;;;;;39.87;24.77;;;11.40;99.90;;;;;;4931505;29;20218;-81
2021/03/23 10:02:01;;;;;;;45.47;26.70;;;11.40;99.90;;;;;;4931152;29;20207;-81
2021/03/23 10:04:47;;;;;;;47.93;28.97;;;11.40;99.90;;;;;;4924955;29;20231;-81
2021/03/23 10:07:37;;;;;;;46.60;29.87;;;11.40;99.90;;;;;;4935255;29;20207;-81
2021/03/23 10:10:27;;;;;;;51.07;32.70;;;11.40;99.90;;;;;;4919746;29;20239;-81
2021/03/23 10:13:27;;;;;;;49.57;30.60;;;11.40;99.90;;;;;;4933675;29;20251;-81
2021/03/23 10:16:26;;;;;;;53.53;32.67;;;11.40;99.90;;;;;;4936903;29;20210;-81
2021/03/23 10:19:21;;;;;;;53.30;32.97;;;11.30;99.90;;;;;;4934600;29;20214;-80
2021/03/23 10:22:13;;;;;;;51.30;33.27;;;11.20;99.90;;;;;;4935996;29;20230;-81
2021/03/23 10:25:00;;;;;;;47.90;28.70;;;11.30;99.90;;;;;;4923746;29;20210;-81
2021/03/23 10:27:45;;;;;;;47.47;29.63;;;11.30;99.90;;;;;;4934875;29;20299;-81
2021/03/23 10:30:32;;;;;;;51.10;31.97;;;11.30;99.90;;;;;;4935079;29;20274;-81
2021/03/23 10:33:22;;;;;;;51.27;32.90;;;11.30;99.90;;;;;;4935809;29;20258;-81
2021/03/23 10:36:09;;;;;;;55.90;37.23;;;11.40;99.90;;;;;;4934437;29;20362;-81
2021/03/23 10:38:54;;;;;;;53.10;31.97;;;11.50;99.90;;;;;;4930506;29;20288;-81
2021/03/23 10:41:40;;;;;;;53.77;31.23;;;11.60;99.90;;;;;;4935980;29;20323;-80
2021/03/23 10:44:28;;;;;;;56.30;32.43;;;11.70;99.90;;;;;;4934175;29;21010;-80
2021/03/23 10:47:32;;;;;;;52.07;32.53;;;11.80;99.90;;;;;;4921978;29;20219;-80
2021/03/23 10:50:21;;;;;;;48.60;27.57;;;11.90;99.90;;;;;;4931669;29;20233;-79
2021/03/23 10:53:15;;;;;;;55.13;30.97;;;12.00;99.90;;;;;;4932346;29;20227;-80
2021/03/23 10:56:01;;;;;;;51.43;30.27;;;12.10;99.90;;;;;;4927789;29;20219;-81
2021/03/23 10:59:04;;;;;;;45.67;27.97;;;12.10;99.90;;;;;;4933462;29;20248;-81
2021/03/23 11:02:05;;;;;;;66.70;32.30;;;12.30;99.90;;;;;;4937481;29;20226;-81
2021/03/23 11:05:03;;;;;;;43.80;27.80;;;12.40;99.90;;;;;;4939275;29;20251;-81
2021/03/23 11:08:00;;;;;;;36.00;22.87;;;12.60;99.90;;;;;;4935971;29;20310;-81
2021/03/23 11:10:46;;;;;;;79.60;28.80;;;12.90;99.90;;;;;;4941671;29;20237;-80
2021/03/23 11:13:31;;;;;;;38.93;24.37;;;13.10;99.90;;;;;;4927915;29;20259;-80
2021/03/23 11:16:19;;;;;;;43.03;27.07;;;13.40;99.90;;;;;;4920276;29;20258;-81
2021/03/23 11:19:11;;;;;;;44.97;27.07;;;13.60;99.90;;;;;;4935798;29;20245;-82
2021/03/23 11:22:03;;;;;;;42.37;27.83;;;14.00;99.90;;;;;;4918426;29;20272;-81
2021/03/23 11:24:49;;;;;;;42.70;27.73;;;14.40;99.90;;;;;;4933981;29;20223;-81
2021/03/23 11:27:34;;;;;;;45.20;30.53;;;14.80;99.90;;;;;;4932601;29;20221;-82
2021/03/23 11:30:20;;;;;;;340.00;58.77;;;15.30;99.90;;;;;;4936128;29;20608;-81
2021/03/23 11:33:05;;;;;;;275.73;52.37;;;15.70;99.90;;;;;;4936751;29;20241;-81
2021/03/23 11:35:51;;;;;;;38.97;27.27;;;16.30;99.90;;;;;;4920709;29;20217;-82
2021/03/23 11:38:36;;;;;;;52.23;31.27;;;16.70;99.90;;;;;;4935479;29;20220;-81
2021/03/23 11:41:25;;;;;;;40.77;29.90;;;17.00;99.90;;;;;;4929826;29;20254;-81
2021/03/23 11:44:17;;;;;;;42.63;28.30;;;17.30;99.90;;;;;;4936065;29;20243;-80
2021/03/23 11:47:10;;;;;;;40.40;28.13;;;17.60;99.90;;;;;;4936753;29;20603;-79
2021/03/23 11:50:02;;;;;;;42.53;28.97;;;18.00;99.90;;;;;;4938829;29;20245;-82
2021/03/23 11:52:49;;;;;;;36.23;25.07;;;18.30;99.90;;;;;;4940382;29;20227;-81
2021/03/23 11:55:36;;;;;;;36.17;26.37;;;18.70;99.90;;;;;;4937715;29;20211;-81
2021/03/23 11:58:25;;;;;;;1929.10;303.50;;;19.00;99.90;;;;;;4932617;29;20219;-81
2021/03/23 12:01:10;;;;;;;42.03;28.03;;;19.30;99.90;;;;;;4931259;29;20234;-81
2021/03/23 12:03:56;;;;;;;37.30;26.47;;;19.70;99.90;;;;;;4930717;29;20283;-81
2021/03/23 12:06:52;;;;;;;37.83;26.93;;;19.90;99.90;;;;;;4932555;29;20281;-80
2021/03/23 12:09:42;;;;;;;247.87;53.47;;;20.10;99.90;;;;;;4934719;29;20647;-81
2021/03/23 12:12:34;;;;;;;40.27;28.73;;;20.30;99.30;;;;;;4926221;29;20252;-80
2021/03/23 12:15:25;;;;;;;42.30;28.77;;;20.40;98.70;;;;;;4926461;29;20263;-80
2021/03/23 12:18:14;;;;;;;40.40;27.03;;;20.30;97.10;;;;;;4927657;29;20248;-80
2021/03/23 12:21:00;;;;;;;420.43;77.83;;;20.20;97.20;;;;;;4925857;29;20236;-80
2021/03/23 12:23:45;;;;;;;191.30;45.20;;;20.20;96.90;;;;;;4924891;29;20256;-81
2021/03/23 12:26:31;;;;;;;205.40;46.97;;;19.70;96.60;;;;;;4949333;29;20271;-78
2021/03/23 12:29:16;;;;;;;512.10;86.00;;;19.50;96.60;;;;;;4958086;29;20218;-79
2021/03/23 12:32:03;;;;;;;146.60;44.33;;;19.10;97.40;;;;;;4955386;29;20248;-80
2021/03/23 12:34:48;;;;;;;1041.27;181.33;;;18.80;96.80;;;;;;4957015;29;20351;-80
2021/03/23 12:37:36;;;;;;;44.73;26.53;;;18.40;97.90;;;;;;4936706;29;20219;-81
2021/03/23 12:40:23;;;;;;;99.17;34.17;;;18.10;98.70;;;;;;4941101;29;20250;-81
2021/03/23 12:43:15;;;;;;;367.67;58.10;;;17.80;99.10;;;;;;4928940;29;20621;-80
2021/03/23 12:46:00;;;;;;;356.97;66.60;;;17.60;99.20;;;;;;4925945;29;20207;-82
2021/03/23 12:48:46;;;;;;;395.97;73.60;;;17.40;99.40;;;;;;4940017;29;20249;-80
2021/03/23 12:51:39;;;;;;;62.50;27.70;;;17.10;99.60;;;;;;4934720;29;20248;-82
2021/03/23 12:54:31;;;;;;;159.17;39.67;;;17.00;99.90;;;;;;4936662;29;20219;-81
2021/03/23 12:57:19;;;;;;;80.53;30.33;;;16.80;99.90;;;;;;4930452;29;20277;-82
2021/03/23 13:00:09;;;;;;;36.80;24.53;;;16.60;99.90;;;;;;4934794;29;20227;-82
2021/03/23 13:02:55;;;;;;;46.73;28.53;;;16.40;99.90;;;;;;4938773;29;20232;-80
2021/03/23 13:05:41;;;;;;;43.37;26.03;;;16.30;99.90;;;;;;4927539;29;20232;-82
2021/03/23 13:08:29;;;;;;;42.50;28.47;;;16.20;99.90;;;;;;4935820;29;20216;-80
2021/03/23 13:11:17;;;;;;;38.53;26.07;;;16.10;99.90;;;;;;4937399;29;20239;-82
2021/03/23 13:14:04;;;;;;;43.23;27.33;;;16.00;99.90;;;;;;4925882;29;20982;-82
2021/03/23 13:16:49;;;;;;;290.67;43.43;;;15.90;99.90;;;;;;4924284;29;20271;-82
2021/03/23 13:19:37;;;;;;;41.93;26.20;;;15.80;99.90;;;;;;4922272;29;20229;-82
2021/03/23 13:22:27;;;;;;;39.30;26.77;;;15.70;99.90;;;;;;4930646;29;20266;-82
2021/03/23 13:25:28;;;;;;;54.67;34.87;;;15.50;99.90;;;;;;4937110;29;20212;-81
2021/03/23 13:28:23;;;;;;;75.80;49.03;;;15.40;99.90;;;;;;4937480;29;20435;-82
2021/03/23 13:31:09;;;;;;;61.10;36.73;;;15.40;99.90;;;;;;4937815;29;20752;-82
2021/03/23 13:33:54;;;;;;;45.10;28.63;;;15.30;99.90;;;;;;4938023;29;20230;-80
2021/03/23 13:36:42;;;;;;;43.70;27.40;;;15.20;99.90;;;;;;4938488;29;20218;-82
2021/03/23 13:39:31;;;;;;;41.43;27.03;;;15.10;99.90;;;;;;4938620;29;20348;-83
2021/03/23 13:42:20;;;;;;;91.57;34.47;;;15.10;99.90;;;;;;4933192;29;20244;-82
2021/03/23 13:45:08;;;;;;;48.50;28.97;;;14.90;99.90;;;;;;4918776;29;20212;-82
2021/03/23 13:47:53;;;;;;;48.73;29.63;;;14.80;99.90;;;;;;4925957;29;20283;-83
2021/03/23 13:50:38;;;;;;;42.47;25.73;;;14.70;99.90;;;;;;4934894;29;20230;-81
2021/03/23 13:53:27;;;;;;;46.10;28.77;;;14.60;99.90;;;;;;4926936;29;20211;-80
2021/03/23 13:56:17;;;;;;;42.73;27.43;;;14.60;99.90;;;;;;4925681;29;20780;-80
2021/03/23 13:59:03;;;;;;;46.87;29.43;;;14.50;99.90;;;;;;4932993;29;20221;-81
2021/03/23 14:01:49;;;;;;;47.70;29.10;;;14.40;99.90;;;;;;4935620;29;20327;-80
2021/03/23 14:04:34;;;;;;;47.87;29.30;;;14.40;99.90;;;;;;4936126;29;20735;-80
2021/03/23 14:07:21;;;;;;;44.70;28.30;;;14.30;99.90;;;;;;4933281;29;20726;-80
2021/03/23 14:10:09;;;;;;;41.90;26.33;;;14.30;99.90;;;;;;4937538;29;21062;-80
2021/03/23 14:12:57;;;;;;;33.07;21.90;;;14.30;99.90;;;;;;4939642;29;20358;-80
2021/03/23 14:15:46;;;;;;;37.90;26.03;;;14.30;99.90;;;;;;4931383;29;20280;-83
2021/03/23 14:18:30;;;;;;;47.67;29.43;;;14.40;99.90;;;;;;4938646;29;20212;-84
2021/03/23 14:21:19;;;;;;;47.60;31.47;;;14.50;99.90;;;;;;4935401;28;20340;-80
2021/03/23 14:24:05;;;;;;;48.07;30.30;;;14.50;99.90;;;;;;4926077;29;20228;-80
2021/03/23 14:26:50;;;;;;;43.23;29.50;;;14.60;99.90;;;;;;4934489;29;20214;-81